Time;durP1;ratioP1;P1;durP2;ratioP2;P2;SDS_P1;SDS_P2;PMS_P1;PMS_P2;Temp;Humidity;BMP_temperature;BMP_pressure;BME280_temperature;BME280_humidity;BME280_pressure;Samples;Min_cycle;Max_cycle;Signal;HPM_P1;HPM_P2
2020/12/16 00:03:47;;;;;;;76.03;36.15;;;8.60;99.90;;;;;;12401653;28;20057;-85
2020/12/16 00:09:48;;;;;;;73.78;34.45;;;8.60;99.90;;;;;;12408524;28;20058;-85
2020/12/16 00:15:50;;;;;;;70.30;34.40;;;8.50;99.90;;;;;;12388394;28;20053;-85
2020/12/16 00:21:51;;;;;;;69.30;35.95;;;8.60;99.90;;;;;;12386766;28;20478;-85
2020/12/16 00:27:53;;;;;;;69.45;35.38;;;8.50;99.90;;;;;;12397253;28;20061;-85
2020/12/16 00:33:56;;;;;;;70.05;35.42;;;8.50;99.90;;;;;;12408980;28;20057;-85
2020/12/16 00:39:57;;;;;;;72.53;36.50;;;8.50;99.90;;;;;;12405503;28;20478;-85
2020/12/16 00:45:58;;;;;;;76.32;35.47;;;8.50;99.90;;;;;;12402852;28;20399;-84
2020/12/16 00:52:00;;;;;;;65.63;34.40;;;8.50;99.90;;;;;;12387451;28;20049;-84
2020/12/16 00:58:01;;;;;;;74.82;37.20;;;8.40;99.90;;;;;;12394436;28;20056;-85
2020/12/16 01:04:02;;;;;;;75.82;36.95;;;8.40;99.90;;;;;;12420280;28;20269;-85
2020/12/16 01:10:04;;;;;;;78.40;38.10;;;8.40;99.90;;;;;;12423471;28;20510;-85
2020/12/16 01:16:06;;;;;;;81.95;38.15;;;8.30;99.90;;;;;;12383195;28;20058;-85
2020/12/16 01:22:07;;;;;;;75.72;35.60;;;8.30;99.90;;;;;;12378949;28;20138;-84
2020/12/16 01:28:08;;;;;;;80.80;38.03;;;8.20;99.90;;;;;;12359814;28;20509;-85
2020/12/16 01:34:11;;;;;;;77.70;36.75;;;8.20;99.90;;;;;;12347643;28;20053;-85
2020/12/16 01:40:14;;;;;;;71.93;36.53;;;8.10;99.90;;;;;;12375270;28;20125;-85
2020/12/16 01:46:15;;;;;;;78.13;36.97;;;8.00;99.90;;;;;;12349874;28;20753;-84
2020/12/16 01:52:20;;;;;;;76.18;37.58;;;7.90;99.90;;;;;;12341738;28;20111;-85
2020/12/16 01:58:23;;;;;;;;;;;7.90;99.90;;;;;;12346740;28;20062;-85
2020/12/16 02:04:28;;;;;;;86.00;38.28;;;7.90;99.90;;;;;;12339007;28;20056;-85
2020/12/16 02:10:30;;;;;;;95.28;39.83;;;7.80;99.90;;;;;;12350050;28;20054;-85
2020/12/16 02:16:31;;;;;;;91.22;39.60;;;7.70;99.90;;;;;;12323315;28;20395;-84
2020/12/16 02:22:33;;;;;;;94.82;38.33;;;7.50;99.90;;;;;;12325268;28;20051;-85
2020/12/16 02:28:34;;;;;;;103.43;41.67;;;7.30;99.90;;;;;;12328255;28;20391;-85
2020/12/16 02:34:35;;;;;;;96.78;39.17;;;7.30;99.90;;;;;;12297645;28;20483;-85
2020/12/16 02:40:37;;;;;;;100.93;38.90;;;7.00;99.90;;;;;;12323514;28;20146;-84
2020/12/16 02:46:38;;;;;;;117.50;42.33;;;6.90;99.90;;;;;;12288543;28;20089;-84
2020/12/16 02:52:39;;;;;;;113.60;41.42;;;6.90;99.90;;;;;;12307508;28;20079;-84
2020/12/16 02:58:45;;;;;;;107.65;41.33;;;6.80;99.90;;;;;;12385695;28;20053;-84
2020/12/16 03:04:46;;;;;;;120.30;42.20;;;6.80;99.90;;;;;;12372850;28;20051;-84
2020/12/16 03:10:48;;;;;;;114.45;42.55;;;6.60;99.90;;;;;;12389528;28;20528;-85
2020/12/16 03:16:49;;;;;;;131.05;42.17;;;6.70;99.90;;;;;;12393349;28;20042;-85
2020/12/16 03:22:51;;;;;;;135.55;43.95;;;6.60;99.90;;;;;;12377533;28;20271;-85
2020/12/16 03:28:52;;;;;;;155.68;44.45;;;6.60;99.90;;;;;;12384903;28;20050;-84
2020/12/16 03:34:54;;;;;;;143.40;44.83;;;6.50;99.90;;;;;;12371531;28;20083;-85
2020/12/16 03:40:57;;;;;;;142.95;43.70;;;6.50;99.90;;;;;;12387268;28;20491;-85
2020/12/16 03:46:58;;;;;;;167.45;43.92;;;6.40;99.90;;;;;;12372406;28;20058;-85
2020/12/16 03:52:59;;;;;;;229.18;39.53;;;6.40;99.90;;;;;;12366362;28;20054;-85
2020/12/16 03:59:01;;;;;;;297.20;35.40;;;6.20;99.90;;;;;;12402428;28;20058;-85
2020/12/16 04:05:02;;;;;;;258.02;31.10;;;5.90;99.90;;;;;;12385254;28;21445;-84
2020/12/16 04:11:14;;;;;;;361.70;33.38;;;5.60;99.90;;;;;;12409934;28;20049;-85
2020/12/16 04:17:16;;;;;;;109.18;35.17;;;5.40;99.90;;;;;;12385136;28;20053;-85
2020/12/16 04:23:17;;;;;;;85.35;28.50;;;5.50;99.90;;;;;;12405669;28;20045;-85
2020/12/16 04:29:18;;;;;;;78.30;30.17;;;5.10;99.90;;;;;;12394773;28;20057;-85
2020/12/16 04:35:20;;;;;;;85.45;32.33;;;5.10;99.90;;;;;;12411374;28;20050;-84
2020/12/16 04:41:21;;;;;;;80.93;29.65;;;5.00;99.90;;;;;;12400767;28;20133;-85
2020/12/16 04:47:22;;;;;;;79.47;30.23;;;4.80;99.90;;;;;;12404076;28;20054;-85
2020/12/16 04:53:24;;;;;;;90.40;34.88;;;4.70;99.90;;;;;;12408590;28;20532;-85
2020/12/16 04:59:26;;;;;;;90.63;33.78;;;4.90;99.90;;;;;;12453127;28;20038;-85
2020/12/16 05:05:28;;;;;;;84.38;34.13;;;5.00;99.90;;;;;;12410191;28;20046;-85
2020/12/16 05:11:34;;;;;;;102.18;37.00;;;4.90;99.90;;;;;;12399823;28;20062;-85
2020/12/16 05:17:35;;;;;;;73.45;29.88;;;5.00;99.90;;;;;;12381041;28;20089;-84
2020/12/16 05:23:37;;;;;;;88.57;33.30;;;4.90;99.90;;;;;;12391927;28;20089;-84
2020/12/16 05:29:38;;;;;;;95.95;35.95;;;4.70;99.90;;;;;;12390372;28;20057;-84
2020/12/16 05:35:40;;;;;;;100.63;37.05;;;4.90;99.90;;;;;;12392775;28;20473;-85
2020/12/16 05:41:53;;;;;;;84.82;34.58;;;5.00;99.90;;;;;;12396123;28;20081;-85
2020/12/16 05:47:59;;;;;;;94.32;32.50;;;5.10;99.90;;;;;;12390430;28;20078;-85
2020/12/16 05:54:12;;;;;;;70.20;28.75;;;5.40;99.90;;;;;;12387299;28;20050;-85
2020/12/16 06:00:19;;;;;;;70.60;30.52;;;5.10;99.90;;;;;;12394315;28;20133;-85
2020/12/16 06:06:22;;;;;;;64.57;27.45;;;5.10;99.90;;;;;;12399606;28;20525;-85
2020/12/16 06:12:28;;;;;;;64.47;27.92;;;4.90;99.90;;;;;;12373770;28;20046;-85
2020/12/16 06:18:38;;;;;;;77.72;30.52;;;4.90;99.90;;;;;;12381918;28;20054;-85
2020/12/16 06:24:42;;;;;;;78.90;31.38;;;5.00;99.90;;;;;;12374568;28;20581;-86
2020/12/16 06:31:08;;;;;;;83.13;34.47;;;5.20;99.90;;;;;;12388939;28;20053;-85
2020/12/16 06:37:17;;;;;;;85.80;34.97;;;5.70;99.90;;;;;;12388673;28;20065;-85
2020/12/16 06:43:38;;;;;;;73.90;32.65;;;6.10;99.90;;;;;;12375635;28;20077;-85
2020/12/16 06:49:40;;;;;;;74.30;34.33;;;6.30;99.90;;;;;;12368614;28;20145;-85
2020/12/16 06:56:05;;;;;;;68.15;33.15;;;6.30;99.90;;;;;;12387359;28;20061;-84
2020/12/16 07:02:11;;;;;;;143.75;18.88;;;6.40;99.90;;;;;;12369960;28;20054;-85
2020/12/16 07:08:27;;;;;;;74.82;12.68;;;6.20;99.90;;;;;;12376332;28;20145;-85
2020/12/16 07:14:34;;;;;;;240.43;17.27;;;5.80;99.90;;;;;;12390854;28;20054;-85
2020/12/16 07:20:35;;;;;;;424.23;20.40;;;5.00;99.90;;;;;;12391465;28;20089;-86
2020/12/16 07:26:43;;;;;;;31.17;19.88;;;4.60;99.90;;;;;;12373661;28;20137;-86
2020/12/16 07:32:44;;;;;;;45.92;25.20;;;4.60;99.90;;;;;;12374254;28;20073;-86
2020/12/16 07:38:51;;;;;;;54.47;29.73;;;5.60;99.90;;;;;;12377667;28;20079;-86
2020/12/16 07:44:56;;;;;;;43.85;24.95;;;6.10;99.90;;;;;;12397478;28;20081;-86
2020/12/16 07:51:02;;;;;;;37.63;22.65;;;6.30;99.90;;;;;;12402925;28;20318;-86
2020/12/16 07:57:05;;;;;;;33.85;21.08;;;6.30;99.90;;;;;;12402151;28;20844;-86
2020/12/16 08:03:07;;;;;;;30.55;19.25;;;6.40;99.90;;;;;;12376416;28;20077;-85
2020/12/16 08:09:09;;;;;;;27.55;18.75;;;6.40;99.90;;;;;;12402614;28;20053;-86
2020/12/16 08:15:15;;;;;;;24.60;16.95;;;6.60;99.90;;;;;;12392027;28;20483;-85
2020/12/16 08:21:18;;;;;;;25.52;16.95;;;6.60;99.90;;;;;;12375680;28;20050;-86
2020/12/16 08:27:19;;;;;;;23.85;15.25;;;6.50;99.90;;;;;;12379313;28;21055;-85
2020/12/16 08:33:24;;;;;;;26.58;16.48;;;6.50;99.90;;;;;;12382011;28;20100;-86
2020/12/16 08:39:27;;;;;;;28.50;17.33;;;6.60;99.90;;;;;;12378384;28;20149;-86
2020/12/16 08:45:31;;;;;;;29.25;17.98;;;6.60;99.90;;;;;;12401233;28;20042;-85
2020/12/16 08:51:35;;;;;;;30.52;19.38;;;6.60;99.90;;;;;;12402326;28;20038;-86
2020/12/16 08:57:36;;;;;;;37.53;21.57;;;6.50;99.90;;;;;;12353966;28;20043;-85
2020/12/16 09:03:41;;;;;;;35.55;20.58;;;6.50;99.90;;;;;;12337917;28;20084;-85
2020/12/16 09:09:45;;;;;;;37.35;21.00;;;6.50;99.90;;;;;;12317149;28;20059;-86
2020/12/16 09:15:50;;;;;;;40.77;21.73;;;6.40;99.90;;;;;;12336929;28;20142;-85
2020/12/16 09:21:52;;;;;;;;;;;6.40;99.90;;;;;;12344668;28;20382;-85
2020/12/16 09:27:55;;;;;;;44.65;22.25;;;6.40;99.90;;;;;;12322783;28;19938;-86
2020/12/16 09:33:57;;;;;;;44.85;21.83;;;6.70;99.90;;;;;;12336179;28;20082;-86
2020/12/16 09:40:11;;;;;;;35.67;20.60;;;6.90;99.90;;;;;;12334211;28;20102;-86
2020/12/16 09:46:17;;;;;;;36.50;20.08;;;7.10;99.90;;;;;;12316574;28;20061;-86
2020/12/16 09:52:32;;;;;;;35.92;19.02;;;7.30;99.90;;;;;;12334275;28;20047;-86
2020/12/16 09:58:38;;;;;;;33.15;19.02;;;7.60;99.90;;;;;;12321243;28;20514;-86
2020/12/16 10:04:41;;;;;;;33.50;18.95;;;7.80;99.90;;;;;;12313900;28;20054;-85
2020/12/16 10:10:44;;;;;;;36.08;20.33;;;7.90;99.90;;;;;;12311391;28;20134;-85
2020/12/16 10:16:47;;;;;;;37.67;21.35;;;7.90;99.90;;;;;;12299872;28;20070;-86
2020/12/16 10:22:48;;;;;;;37.83;20.77;;;7.80;99.90;;;;;;12311574;28;20396;-85
2020/12/16 10:28:49;;;;;;;42.17;20.35;;;7.50;99.90;;;;;;12317624;28;20482;-85
2020/12/16 10:34:53;;;;;;;42.88;22.52;;;7.40;99.90;;;;;;12314770;28;20455;-85
2020/12/16 10:40:54;;;;;;;44.05;22.58;;;7.40;99.90;;;;;;12325793;28;20051;-86
2020/12/16 10:46:55;;;;;;;39.90;20.85;;;7.50;99.90;;;;;;12303766;28;20138;-86
2020/12/16 10:52:58;;;;;;;40.13;19.75;;;7.60;99.90;;;;;;12309657;28;20087;-85
2020/12/16 10:58:59;;;;;;;35.78;18.75;;;7.70;99.90;;;;;;12309650;28;20082;-85
2020/12/16 11:05:01;;;;;;;32.30;17.70;;;7.80;99.90;;;;;;12310307;28;20102;-86
2020/12/16 11:11:02;;;;;;;32.53;18.10;;;7.90;99.90;;;;;;12316164;28;20081;-86
2020/12/16 11:17:05;;;;;;;35.88;18.90;;;8.00;99.90;;;;;;12320526;28;20703;-86
2020/12/16 11:23:06;;;;;;;32.92;17.92;;;8.10;99.90;;;;;;12318242;28;20046;-85
2020/12/16 11:29:10;;;;;;;31.48;17.75;;;8.20;99.90;;;;;;12319686;28;20109;-86
2020/12/16 11:35:11;;;;;;;29.85;16.75;;;8.40;99.90;;;;;;12320691;28;20090;-85
2020/12/16 11:41:12;;;;;;;29.23;16.42;;;8.50;99.90;;;;;;12323615;28;20794;-85
2020/12/16 11:47:14;;;;;;;29.05;16.60;;;8.50;99.90;;;;;;12320959;28;20050;-86
2020/12/16 11:53:15;;;;;;;23.17;15.00;;;8.70;99.90;;;;;;12317703;28;20061;-85
2020/12/16 11:59:16;;;;;;;22.15;14.23;;;8.70;99.90;;;;;;12400227;28;20074;-85
2020/12/16 12:05:17;;;;;;;24.90;15.65;;;8.80;99.90;;;;;;12399819;28;20051;-85
2020/12/16 12:11:19;;;;;;;24.27;14.25;;;8.80;99.90;;;;;;12397716;28;20042;-85
2020/12/16 12:17:21;;;;;;;22.50;14.23;;;8.90;99.90;;;;;;12378039;28;20421;-85
2020/12/16 12:23:22;;;;;;;23.98;13.45;;;8.90;99.90;;;;;;12393706;28;20140;-86
2020/12/16 12:29:24;;;;;;;21.42;12.73;;;8.90;99.90;;;;;;12372100;28;20098;-85
2020/12/16 12:35:25;;;;;;;19.95;11.77;;;9.00;99.90;;;;;;12394074;28;20058;-85
2020/12/16 12:41:26;;;;;;;15.30;9.65;;;9.10;99.90;;;;;;12375982;28;20513;-86
2020/12/16 12:47:27;;;;;;;15.18;10.23;;;9.20;99.90;;;;;;12390484;28;20558;-85
2020/12/16 12:53:29;;;;;;;12.82;9.18;;;9.30;99.90;;;;;;12398843;28;20045;-86
2020/12/16 12:59:31;;;;;;;13.52;9.02;;;9.40;99.90;;;;;;12382645;28;20085;-85
2020/12/16 13:05:33;;;;;;;13.00;8.90;;;9.40;99.90;;;;;;12388766;28;20486;-85
2020/12/16 13:11:34;;;;;;;13.02;9.23;;;9.50;99.90;;;;;;12387358;28;20351;-85
2020/12/16 13:17:36;;;;;;;14.02;8.85;;;9.50;99.90;;;;;;12388051;28;20046;-85
2020/12/16 13:23:37;;;;;;;13.65;8.93;;;9.50;99.90;;;;;;12369189;28;20061;-86
2020/12/16 13:29:38;;;;;;;15.55;10.05;;;9.40;99.90;;;;;;12368610;28;20057;-86
2020/12/16 13:35:40;;;;;;;17.77;10.57;;;9.40;99.90;;;;;;12391739;28;20066;-85
2020/12/16 13:41:43;;;;;;;14.57;9.93;;;9.30;99.90;;;;;;12395452;28;20054;-85
2020/12/16 13:47:49;;;;;;;15.77;11.05;;;9.20;99.90;;;;;;12391842;28;20058;-86
2020/12/16 13:53:51;;;;;;;18.73;11.57;;;9.20;99.90;;;;;;12368682;28;20461;-86
2020/12/16 13:59:52;;;;;;;16.95;11.27;;;9.10;99.90;;;;;;12421672;28;20496;-86
2020/12/16 14:05:54;;;;;;;18.15;10.77;;;9.10;99.90;;;;;;12364356;28;20100;-86
2020/12/16 14:11:55;;;;;;;17.75;11.10;;;9.00;99.90;;;;;;12392724;28;20058;-86
2020/12/16 14:17:56;;;;;;;15.05;10.57;;;8.90;99.90;;;;;;12391740;28;20094;-86
2020/12/16 14:23:58;;;;;;;16.52;11.07;;;9.00;99.90;;;;;;12390280;28;20062;-85
2020/12/16 14:30:00;;;;;;;16.58;11.18;;;8.90;99.90;;;;;;12385875;28;20089;-85
2020/12/16 14:36:07;;;;;;;16.70;10.40;;;8.90;99.90;;;;;;12367467;28;20073;-86
2020/12/16 14:42:09;;;;;;;16.58;11.48;;;8.80;99.90;;;;;;12393234;28;20100;-85
2020/12/16 14:48:11;;;;;;;17.20;10.75;;;8.70;99.90;;;;;;12364591;28;20057;-86
2020/12/16 14:54:12;;;;;;;15.73;10.43;;;8.60;99.90;;;;;;12365467;28;20057;-86
2020/12/16 15:00:16;;;;;;;16.10;10.40;;;8.60;99.90;;;;;;12368640;28;20053;-85
2020/12/16 15:06:25;;;;;;;16.90;11.00;;;8.60;99.90;;;;;;12373870;28;20441;-85
2020/12/16 15:12:26;;;;;;;16.25;10.75;;;8.50;99.90;;;;;;12393734;28;20435;-85
2020/12/16 15:18:27;;;;;;;14.88;10.50;;;8.40;99.90;;;;;;12392367;28;20047;-85
2020/12/16 15:24:29;;;;;;;14.45;9.35;;;8.40;99.90;;;;;;12369075;28;20050;-86
2020/12/16 15:30:30;;;;;;;15.55;9.88;;;8.40;99.90;;;;;;12387278;28;20058;-85
2020/12/16 15:36:32;;;;;;;13.30;8.18;;;8.30;99.90;;;;;;12373861;28;20086;-85
2020/12/16 15:42:34;;;;;;;11.70;7.88;;;8.40;99.90;;;;;;12398713;28;20507;-85
2020/12/16 15:48:35;;;;;;;14.18;8.75;;;8.60;99.90;;;;;;12370253;28;20057;-85
2020/12/16 15:54:38;;;;;;;12.25;8.63;;;8.40;99.90;;;;;;12380276;28;20510;-85
2020/12/16 16:00:40;;;;;;;11.95;7.88;;;8.40;99.90;;;;;;12383109;28;20081;-85
2020/12/16 16:06:41;;;;;;;11.80;8.05;;;8.50;99.90;;;;;;12399061;28;20082;-83
2020/12/16 16:12:43;;;;;;;10.25;7.13;;;8.30;99.90;;;;;;12376384;28;20564;-85
2020/12/16 16:18:45;;;;;;;11.73;7.65;;;8.50;99.90;;;;;;12398734;28;20082;-84
2020/12/16 16:24:47;;;;;;;11.77;7.82;;;8.60;99.90;;;;;;12378026;28;20074;-85
2020/12/16 16:30:48;;;;;;;10.63;7.18;;;8.50;99.90;;;;;;12397093;28;20137;-85
2020/12/16 16:36:50;;;;;;;13.00;9.40;;;8.50;99.90;;;;;;12381445;28;20085;-85
2020/12/16 16:42:51;;;;;;;10.25;7.28;;;8.50;99.90;;;;;;12399175;28;20501;-85
2020/12/16 16:48:52;;;;;;;10.73;7.40;;;8.60;99.90;;;;;;12376951;28;20061;-85
2020/12/16 16:54:54;;;;;;;10.93;6.53;;;8.70;99.90;;;;;;12400556;28;20096;-85
2020/12/16 17:00:55;;;;;;;10.25;7.57;;;8.70;99.90;;;;;;12387655;28;20058;-85
2020/12/16 17:07:01;;;;;;;10.52;8.05;;;8.70;99.90;;;;;;12398107;28;20054;-85
2020/12/16 17:13:02;;;;;;;10.25;7.63;;;8.80;99.90;;;;;;12379326;28;20778;-85
2020/12/16 17:19:05;;;;;;;9.13;7.03;;;8.90;99.90;;;;;;12402727;28;20062;-86
2020/12/16 17:25:07;;;;;;;10.45;7.28;;;9.00;99.90;;;;;;12414897;28;20038;-86
2020/12/16 17:31:09;;;;;;;10.88;8.32;;;9.00;99.90;;;;;;12402107;28;20545;-85
2020/12/16 17:37:10;;;;;;;10.68;7.28;;;8.90;99.90;;;;;;12398362;28;20201;-84
2020/12/16 17:43:11;;;;;;;11.38;6.88;;;8.90;99.90;;;;;;12400239;28;20050;-85
2020/12/16 17:49:13;;;;;;;9.95;7.55;;;9.00;99.90;;;;;;12374649;28;20109;-84
2020/12/16 17:55:14;;;;;;;10.35;7.72;;;8.90;99.90;;;;;;12393922;28;20050;-85
2020/12/16 18:01:16;;;;;;;11.45;8.40;;;9.00;99.90;;;;;;12376735;28;20045;-85
2020/12/16 18:07:18;;;;;;;12.32;8.77;;;8.90;99.90;;;;;;12372888;28;20406;-85
2020/12/16 18:13:19;;;;;;;11.35;8.30;;;8.90;99.90;;;;;;12388967;28;20062;-85
2020/12/16 18:19:20;;;;;;;13.05;8.20;;;8.80;99.90;;;;;;12397214;28;20054;-85
2020/12/16 18:25:23;;;;;;;11.57;8.98;;;8.70;99.90;;;;;;12395524;28;20049;-85
2020/12/16 18:31:25;;;;;;;12.38;9.15;;;8.70;99.90;;;;;;12394072;28;20092;-85
2020/12/16 18:37:26;;;;;;;13.23;9.52;;;8.60;99.90;;;;;;12399931;28;20458;-84
2020/12/16 18:43:27;;;;;;;14.23;8.52;;;8.80;99.90;;;;;;12370855;28;20069;-85
2020/12/16 18:49:29;;;;;;;13.07;9.70;;;8.60;99.90;;;;;;12388443;28;20050;-85
2020/12/16 18:55:30;;;;;;;13.73;9.10;;;8.60;99.90;;;;;;12371107;28;20057;-85
2020/12/16 19:01:35;;;;;;;12.95;8.90;;;8.60;99.90;;;;;;12388977;28;20057;-85
2020/12/16 19:07:37;;;;;;;13.90;9.63;;;8.50;99.90;;;;;;12369906;28;20054;-85
2020/12/16 19:13:39;;;;;;;12.45;9.20;;;8.40;99.90;;;;;;12380577;28;21083;-85
2020/12/16 19:19:41;;;;;;;14.27;9.70;;;8.40;99.90;;;;;;12371612;28;20050;-85
2020/12/16 19:25:42;;;;;;;16.00;10.05;;;8.40;99.90;;;;;;12373363;28;20423;-86
2020/12/16 19:31:45;;;;;;;15.60;10.63;;;8.30;99.90;;;;;;12394104;28;20050;-84
2020/12/16 19:37:46;;;;;;;14.40;10.52;;;8.40;99.90;;;;;;12389833;28;20510;-84
2020/12/16 19:43:48;;;;;;;14.18;11.07;;;8.40;99.90;;;;;;12402199;28;20058;-84
2020/12/16 19:49:50;;;;;;;16.13;11.15;;;8.40;99.90;;;;;;12372904;28;20051;-85
2020/12/16 19:55:51;;;;;;;15.95;11.73;;;8.40;99.90;;;;;;12406371;28;20525;-84
2020/12/16 20:01:54;;;;;;;14.52;10.93;;;8.40;99.90;;;;;;12375176;28;20096;-85
2020/12/16 20:07:55;;;;;;;15.95;11.55;;;8.40;99.90;;;;;;12379323;28;20089;-84
2020/12/16 20:13:57;;;;;;;15.57;11.50;;;8.40;99.90;;;;;;12386497;28;20121;-85
2020/12/16 20:20:00;;;;;;;18.02;12.15;;;8.60;99.90;;;;;;12399292;28;20046;-84
2020/12/16 20:26:02;;;;;;;17.17;13.10;;;8.50;99.90;;;;;;12378621;28;20050;-84
2020/12/16 20:32:05;;;;;;;18.63;13.18;;;8.50;99.90;;;;;;12400524;28;20521;-84
2020/12/16 20:38:11;;;;;;;17.75;13.23;;;8.60;99.90;;;;;;12396517;28;20047;-84
2020/12/16 20:44:12;;;;;;;19.48;13.23;;;8.50;99.90;;;;;;12380244;28;20525;-84
2020/12/16 20:50:13;;;;;;;19.90;14.05;;;8.50;99.90;;;;;;12396444;28;20073;-85
2020/12/16 20:56:15;;;;;;;20.35;14.25;;;8.50;99.90;;;;;;12426717;28;20065;-85
2020/12/16 21:02:17;;;;;;;20.00;13.82;;;8.40;99.90;;;;;;12399421;28;20045;-85
2020/12/16 21:08:24;;;;;;;20.27;14.90;;;8.30;99.90;;;;;;12395895;28;20053;-84
2020/12/16 21:14:25;;;;;;;20.88;14.57;;;8.30;99.90;;;;;;12376551;28;20058;-84
2020/12/16 21:20:27;;;;;;;20.52;13.95;;;8.40;99.90;;;;;;12396120;28;20057;-84
2020/12/16 21:26:28;;;;;;;24.88;15.40;;;8.40;99.90;;;;;;12395813;28;20058;-85
2020/12/16 21:32:29;;;;;;;21.00;13.65;;;8.40;99.90;;;;;;12378703;28;20057;-84
2020/12/16 21:38:42;;;;;;;23.88;15.90;;;8.30;99.90;;;;;;12379832;28;20050;-84
2020/12/16 21:44:45;;;;;;;22.88;14.90;;;8.20;99.90;;;;;;12389604;28;20077;-85
2020/12/16 21:50:47;;;;;;;24.88;15.82;;;8.20;99.90;;;;;;12391483;28;20062;-84
2020/12/16 21:56:48;;;;;;;22.15;15.27;;;8.20;99.90;;;;;;12386467;28;20074;-84
2020/12/16 22:02:50;;;;;;;23.80;16.20;;;8.10;99.90;;;;;;12375234;28;20545;-85
2020/12/16 22:09:12;;;;;;;25.58;16.02;;;8.10;99.90;;;;;;12389488;28;20490;-84
2020/12/16 22:15:13;;;;;;;24.50;16.33;;;8.10;99.90;;;;;;12391136;28;20092;-84
2020/12/16 22:21:15;;;;;;;24.60;16.60;;;8.20;99.90;;;;;;12384865;28;20599;-85
2020/12/16 22:27:16;;;;;;;28.40;17.02;;;8.10;99.90;;;;;;12377622;28;20103;-85
2020/12/16 22:33:18;;;;;;;27.77;18.35;;;8.00;99.90;;;;;;12378579;28;20057;-85
2020/12/16 22:39:20;;;;;;;24.83;17.45;;;8.10;99.90;;;;;;12397003;28;20053;-84
2020/12/16 22:45:22;;;;;;;23.73;16.70;;;8.10;99.90;;;;;;12400333;28;20074;-85
2020/12/16 22:51:23;;;;;;;25.05;16.63;;;8.10;99.90;;;;;;12377744;28;20503;-84
2020/12/16 22:57:25;;;;;;;26.85;17.05;;;8.10;99.90;;;;;;12402602;28;20057;-84
2020/12/16 23:03:26;;;;;;;26.88;16.98;;;8.00;99.90;;;;;;12376781;28;20050;-85
2020/12/16 23:09:36;;;;;;;25.67;16.65;;;8.00;99.90;;;;;;12376919;28;20378;-85
2020/12/16 23:15:37;;;;;;;27.88;17.23;;;8.00;99.90;;;;;;12374601;28;20189;-84
2020/12/16 23:21:42;;;;;;;23.67;16.13;;;8.10;99.90;;;;;;12392737;28;20049;-84
2020/12/16 23:27:44;;;;;;;25.15;16.58;;;8.10;99.90;;;;;;12388468;28;20493;-84
2020/12/16 23:33:46;;;;;;;28.08;17.13;;;8.20;99.90;;;;;;12370097;28;20521;-84
2020/12/16 23:39:52;;;;;;;25.25;17.17;;;8.20;99.90;;;;;;12370539;28;20066;-85
2020/12/16 23:45:55;;;;;;;26.08;16.42;;;8.30;99.90;;;;;;12374085;28;20623;-85
2020/12/16 23:51:56;;;;;;;27.48;17.60;;;8.40;99.90;;;;;;12375780;28;20058;-85
2020/12/16 23:57:58;;;;;;;27.05;17.33;;;8.40;99.90;;;;;;12387671;28;20046;-85
